createdAt,value
2018-09-09T00:01:47.999Z,99.90
2018-09-09T00:04:16.821Z,99.90
2018-09-09T00:06:45.431Z,99.90
2018-09-09T00:09:19.030Z,99.90
2018-09-09T00:11:47.817Z,99.90
2018-09-09T00:14:16.441Z,99.90
2018-09-09T00:16:45.185Z,99.90
2018-09-09T00:19:14.102Z,99.90
2018-09-09T00:21:42.984Z,99.90
2018-09-09T00:24:11.543Z,99.90
2018-09-09T00:26:40.314Z,99.90
2018-09-09T00:29:10.120Z,99.90
2018-09-09T00:31:38.783Z,99.90
2018-09-09T00:34:07.545Z,99.90
2018-09-09T00:36:36.070Z,99.90
2018-09-09T00:39:06.001Z,99.90
2018-09-09T00:41:34.818Z,99.90
2018-09-09T00:44:03.409Z,99.90
2018-09-09T00:46:32.250Z,99.90
2018-09-09T00:49:06.052Z,99.90
2018-09-09T00:51:40.288Z,99.90
2018-09-09T00:54:08.844Z,99.90
2018-09-09T00:56:37.402Z,99.90
2018-09-09T00:59:06.075Z,99.90
2018-09-09T01:01:34.853Z,99.90
2018-09-09T01:04:03.383Z,99.90
2018-09-09T01:06:32.028Z,99.90
2018-09-09T01:09:00.604Z,99.90
2018-09-09T01:11:29.256Z,99.90
2018-09-09T01:13:57.924Z,99.90
2018-09-09T01:16:26.632Z,99.90
2018-09-09T01:18:55.560Z,99.90
2018-09-09T01:21:24.069Z,99.90
2018-09-09T01:23:52.867Z,99.90
2018-09-09T01:26:21.411Z,99.90
2018-09-09T01:28:50.268Z,99.90
2018-09-09T01:31:18.959Z,99.90
2018-09-09T01:33:47.562Z,99.90
2018-09-09T01:36:16.352Z,99.90
2018-09-09T01:38:45.070Z,99.90
2018-09-09T01:41:13.850Z,99.90
2018-09-09T01:43:42.364Z,99.90
2018-09-09T01:46:11.088Z,99.90
2018-09-09T01:48:39.889Z,99.90
2018-09-09T01:51:08.510Z,99.90
2018-09-09T01:53:37.179Z,99.90
2018-09-09T01:56:05.882Z,99.90
2018-09-09T01:58:34.692Z,99.90
2018-09-09T02:01:03.386Z,99.90
2018-09-09T02:03:32.135Z,99.90
2018-09-09T02:06:01.169Z,99.90
2018-09-09T02:08:29.738Z,99.90
2018-09-09T02:11:00.000Z,99.90
2018-09-09T02:13:30.088Z,99.90
2018-09-09T02:15:59.034Z,99.90
2018-09-09T02:18:28.098Z,99.90
2018-09-09T02:20:56.750Z,99.90
2018-09-09T02:23:25.677Z,99.90
2018-09-09T02:25:54.611Z,99.90
2018-09-09T02:28:23.235Z,99.90
2018-09-09T02:30:51.983Z,99.90
2018-09-09T02:33:20.738Z,99.90
2018-09-09T02:35:49.319Z,99.90
2018-09-09T02:38:18.132Z,99.90
2018-09-09T02:40:47.035Z,99.90
2018-09-09T02:43:15.745Z,99.90
2018-09-09T02:45:44.834Z,99.90
2018-09-09T02:48:13.502Z,99.90
2018-09-09T02:50:42.139Z,99.90
2018-09-09T02:53:11.073Z,99.90
2018-09-09T02:55:45.342Z,99.90
2018-09-09T02:58:15.805Z,99.90
2018-09-09T03:00:44.783Z,99.90
2018-09-09T03:03:13.367Z,99.90
2018-09-09T03:05:42.529Z,99.90
2018-09-09T03:08:11.311Z,99.90
2018-09-09T03:10:40.528Z,99.90
2018-09-09T03:13:09.304Z,99.90
2018-09-09T03:15:37.868Z,99.90
2018-09-09T03:18:06.689Z,99.90
2018-09-09T03:20:35.225Z,99.90
2018-09-09T03:23:03.793Z,99.90
2018-09-09T03:25:32.424Z,99.90
2018-09-09T03:28:01.174Z,99.90
2018-09-09T03:30:30.101Z,99.90
2018-09-09T03:32:58.698Z,99.90
2018-09-09T03:35:27.492Z,99.90
2018-09-09T03:37:56.232Z,99.90
2018-09-09T03:40:24.779Z,99.90
2018-09-09T03:42:53.321Z,99.90
2018-09-09T03:45:21.852Z,99.90
2018-09-09T03:47:50.636Z,99.90
2018-09-09T03:50:19.271Z,99.90
2018-09-09T03:52:48.074Z,99.90
2018-09-09T03:55:16.647Z,99.90
2018-09-09T03:57:45.466Z,99.90
2018-09-09T04:00:14.167Z,99.90
2018-09-09T04:02:42.916Z,99.90
2018-09-09T04:05:11.474Z,99.90
2018-09-09T04:07:40.018Z,99.90
2018-09-09T04:10:08.638Z,99.90
2018-09-09T04:12:37.511Z,99.90
2018-09-09T04:15:06.454Z,99.90
2018-09-09T04:17:35.003Z,99.90
2018-09-09T04:20:03.525Z,99.90
2018-09-09T04:22:32.063Z,99.90
2018-09-09T04:25:00.650Z,99.90
2018-09-09T04:27:29.363Z,99.90
2018-09-09T04:29:58.349Z,99.90
2018-09-09T04:32:27.251Z,99.90
2018-09-09T04:34:55.875Z,99.90
2018-09-09T04:37:24.810Z,99.90
2018-09-09T04:39:53.453Z,99.90
2018-09-09T04:42:22.074Z,99.90
2018-09-09T04:44:50.954Z,99.90
2018-09-09T04:47:19.738Z,99.90
2018-09-09T04:49:48.283Z,99.90
2018-09-09T04:52:17.313Z,99.90
2018-09-09T04:54:46.151Z,99.90
2018-09-09T04:57:14.724Z,99.90
2018-09-09T04:59:43.603Z,99.90
2018-09-09T05:02:12.167Z,99.90
2018-09-09T05:04:40.721Z,99.90
2018-09-09T05:07:09.697Z,99.90
2018-09-09T05:09:38.206Z,99.90
2018-09-09T05:12:07.090Z,99.90
2018-09-09T05:14:35.929Z,99.90
2018-09-09T05:17:04.520Z,99.90
2018-09-09T05:19:33.257Z,99.90
2018-09-09T05:22:01.955Z,99.90
2018-09-09T05:24:30.613Z,99.90
2018-09-09T05:26:59.300Z,99.90
2018-09-09T05:29:27.990Z,99.90
2018-09-09T05:31:56.755Z,99.90
2018-09-09T05:34:25.476Z,99.90
2018-09-09T05:36:54.161Z,99.90
2018-09-09T05:39:22.790Z,99.90
2018-09-09T05:41:51.917Z,99.90
2018-09-09T05:44:20.454Z,99.90
2018-09-09T05:46:49.028Z,99.90
2018-09-09T05:49:17.608Z,99.90
2018-09-09T05:51:46.148Z,99.90
2018-09-09T05:54:14.685Z,99.90
2018-09-09T05:56:43.472Z,99.90
2018-09-09T05:59:12.554Z,99.90
2018-09-09T06:01:41.227Z,99.90
2018-09-09T06:04:09.927Z,99.90
2018-09-09T06:06:38.665Z,99.90
2018-09-09T06:09:09.593Z,99.90
2018-09-09T06:11:38.177Z,99.90
2018-09-09T06:14:07.172Z,99.90
2018-09-09T06:16:36.240Z,99.90
2018-09-09T06:19:05.114Z,99.90
2018-09-09T06:21:34.228Z,99.90
2018-09-09T06:24:03.022Z,99.90
2018-09-09T06:26:31.689Z,99.90
2018-09-09T06:29:00.471Z,99.90
2018-09-09T06:31:29.156Z,99.90
2018-09-09T06:33:57.788Z,99.90
2018-09-09T06:36:26.485Z,99.90
2018-09-09T06:38:55.270Z,99.90
2018-09-09T06:41:24.219Z,99.90
2018-09-09T06:43:52.888Z,99.90
2018-09-09T06:46:21.575Z,99.90
2018-09-09T06:48:50.322Z,99.90
2018-09-09T06:51:18.978Z,99.90
2018-09-09T06:53:47.574Z,99.90
2018-09-09T06:56:16.291Z,99.90
2018-09-09T06:58:45.035Z,99.90
2018-09-09T07:01:13.753Z,99.90
2018-09-09T07:03:43.023Z,99.90
2018-09-09T07:06:11.644Z,99.90
2018-09-09T07:08:40.460Z,99.90
2018-09-09T07:11:09.549Z,99.90
2018-09-09T07:13:38.130Z,99.90
2018-09-09T07:16:06.682Z,99.90
2018-09-09T07:18:35.320Z,99.90
2018-09-09T07:21:04.094Z,99.90
2018-09-09T07:23:33.014Z,99.90
2018-09-09T07:26:01.895Z,99.90
2018-09-09T07:28:30.865Z,99.90
2018-09-09T07:30:59.585Z,99.90
2018-09-09T07:33:28.307Z,99.90
2018-09-09T07:35:57.223Z,99.90
2018-09-09T07:38:26.188Z,99.90
2018-09-09T07:40:55.342Z,99.90
2018-09-09T07:43:24.365Z,99.90
2018-09-09T07:45:53.429Z,99.90
2018-09-09T07:48:22.159Z,99.90
2018-09-09T07:50:51.380Z,99.90
2018-09-09T07:53:20.086Z,99.90
2018-09-09T07:55:48.796Z,99.90
2018-09-09T07:58:17.490Z,99.90
2018-09-09T08:00:46.222Z,99.90
2018-09-09T08:03:15.088Z,99.90
2018-09-09T08:05:43.855Z,99.90
2018-09-09T08:08:12.791Z,99.90
2018-09-09T08:10:41.577Z,99.90
2018-09-09T08:13:10.362Z,99.90
2018-09-09T08:15:39.425Z,99.90
2018-09-09T08:18:08.127Z,99.90
2018-09-09T08:20:36.906Z,99.90
2018-09-09T08:23:05.851Z,99.90
2018-09-09T08:25:34.435Z,99.90
2018-09-09T08:28:03.682Z,99.90
2018-09-09T08:30:32.508Z,99.90
2018-09-09T08:33:01.307Z,99.90
2018-09-09T08:35:30.110Z,99.90
2018-09-09T08:37:58.709Z,99.90
2018-09-09T08:40:27.477Z,99.90
2018-09-09T08:42:56.489Z,99.90
2018-09-09T08:45:25.898Z,99.90
2018-09-09T08:47:55.082Z,99.90
2018-09-09T08:50:24.380Z,99.90
2018-09-09T08:52:53.270Z,99.90
2018-09-09T08:55:22.355Z,99.90
2018-09-09T08:57:51.407Z,99.90
2018-09-09T09:00:20.621Z,99.90
2018-09-09T09:02:49.501Z,99.90
2018-09-09T09:05:18.686Z,99.90
2018-09-09T09:07:47.740Z,99.90
2018-09-09T09:10:16.373Z,99.90
2018-09-09T09:12:45.396Z,99.90
2018-09-09T09:15:14.195Z,99.90
2018-09-09T09:17:42.938Z,99.90
2018-09-09T09:20:11.840Z,99.90
2018-09-09T09:22:40.821Z,99.90
2018-09-09T09:25:09.610Z,99.70
2018-09-09T09:27:38.480Z,99.10
2018-09-09T09:30:07.417Z,98.70
2018-09-09T09:32:35.980Z,98.10
2018-09-09T09:35:05.112Z,97.30
2018-09-09T09:37:33.979Z,97.10
2018-09-09T09:40:02.897Z,96.50
2018-09-09T09:42:31.623Z,95.90
2018-09-09T09:45:00.523Z,94.80
2018-09-09T09:47:29.261Z,93.00
2018-09-09T09:49:58.454Z,92.40
2018-09-09T09:52:27.400Z,91.30
2018-09-09T09:54:56.247Z,90.60
2018-09-09T09:57:25.003Z,89.50
2018-09-09T09:59:53.622Z,88.90
2018-09-09T10:02:22.509Z,88.00
2018-09-09T10:04:51.195Z,88.50
2018-09-09T10:07:20.006Z,89.00
2018-09-09T10:09:49.011Z,85.70
2018-09-09T10:12:17.762Z,84.50
2018-09-09T10:14:46.371Z,85.30
2018-09-09T10:17:15.324Z,83.30
2018-09-09T10:19:44.267Z,80.90
2018-09-09T10:22:13.429Z,81.40
2018-09-09T10:24:42.333Z,80.30
2018-09-09T10:27:11.183Z,78.20
2018-09-09T10:29:39.955Z,75.70
2018-09-09T10:32:08.933Z,76.00
2018-09-09T10:34:38.254Z,75.30
2018-09-09T10:37:07.336Z,76.70
2018-09-09T10:39:36.319Z,76.30
2018-09-09T10:42:04.949Z,78.80
2018-09-09T10:44:33.663Z,78.20
2018-09-09T10:47:02.545Z,75.70
2018-09-09T10:49:31.313Z,74.40
2018-09-09T10:51:59.962Z,71.50
2018-09-09T10:54:28.614Z,71.80
2018-09-09T10:56:57.390Z,71.30
2018-09-09T10:59:25.959Z,69.30
2018-09-09T11:01:54.926Z,67.80
2018-09-09T11:04:23.806Z,68.40
2018-09-09T11:06:53.805Z,69.40
2018-09-09T11:09:22.572Z,67.60
2018-09-09T11:11:51.325Z,65.50
2018-09-09T11:14:20.314Z,65.70
2018-09-09T11:16:49.241Z,66.90
2018-09-09T11:19:17.970Z,66.70
2018-09-09T11:21:46.851Z,67.00
2018-09-09T11:24:15.827Z,62.70
2018-09-09T11:26:44.596Z,63.50
2018-09-09T11:29:13.527Z,64.30
2018-09-09T11:31:42.589Z,63.00
2018-09-09T11:34:11.453Z,63.00
2018-09-09T11:36:40.662Z,66.90
2018-09-09T11:39:10.247Z,71.20
2018-09-09T11:41:39.530Z,70.40
2018-09-09T11:44:08.465Z,72.80
2018-09-09T11:46:37.325Z,73.50
2018-09-09T11:49:06.147Z,72.30
2018-09-09T11:51:35.100Z,71.70
2018-09-09T11:54:03.874Z,71.40
2018-09-09T11:56:32.765Z,72.00
2018-09-09T11:59:01.582Z,70.20
2018-09-09T12:01:30.268Z,68.70
2018-09-09T12:03:59.410Z,67.50
2018-09-09T12:06:28.163Z,66.50
2018-09-09T12:08:57.031Z,66.00
2018-09-09T12:11:25.881Z,63.40
2018-09-09T12:13:54.589Z,61.80
2018-09-09T12:16:23.369Z,59.60
2018-09-09T12:18:52.010Z,59.50
2018-09-09T12:21:20.800Z,58.90
2018-09-09T12:23:49.610Z,59.60
2018-09-09T12:26:18.441Z,58.40
2018-09-09T12:28:47.483Z,58.60
2018-09-09T12:31:16.605Z,59.20
2018-09-09T12:33:45.524Z,56.30
2018-09-09T12:36:14.293Z,55.40
2018-09-09T12:38:43.376Z,54.70
2018-09-09T12:41:12.078Z,54.80
2018-09-09T12:44:47.156Z,54.80
2018-09-09T12:47:21.382Z,50.20
2018-09-09T12:49:50.153Z,49.10
2018-09-09T12:52:19.276Z,46.50
2018-09-09T12:54:48.338Z,45.00
2018-09-09T12:57:17.444Z,43.30
2018-09-09T12:59:46.171Z,43.60
2018-09-09T13:02:15.324Z,44.90
2018-09-09T13:04:44.108Z,44.50
2018-09-09T13:07:13.077Z,44.90
2018-09-09T13:09:41.678Z,45.40
2018-09-09T13:12:10.611Z,45.90
2018-09-09T13:14:39.366Z,43.90
2018-09-09T13:17:08.192Z,43.00
2018-09-09T13:19:37.056Z,43.80
2018-09-09T13:22:06.026Z,44.40
2018-09-09T13:24:34.715Z,46.60
2018-09-09T13:27:03.490Z,45.10
2018-09-09T13:29:32.410Z,43.40
2018-09-09T13:32:01.362Z,42.20
2018-09-09T13:34:30.268Z,42.40
2018-09-09T13:36:59.261Z,42.90
2018-09-09T13:39:28.042Z,42.30
2018-09-09T13:41:56.700Z,43.40
2018-09-09T13:44:25.875Z,41.70
2018-09-09T13:46:54.846Z,42.60
2018-09-09T13:49:23.565Z,40.10
2018-09-09T13:51:52.530Z,40.30
2018-09-09T13:54:21.495Z,40.30
2018-09-09T13:56:50.326Z,38.70
2018-09-09T13:59:19.245Z,37.80
2018-09-09T14:01:48.028Z,38.30
2018-09-09T14:04:16.707Z,39.20
2018-09-09T14:06:45.272Z,38.50
2018-09-09T14:09:14.261Z,38.00
2018-09-09T14:11:43.123Z,37.50
2018-09-09T14:14:11.791Z,39.20
2018-09-09T14:16:40.831Z,40.00
2018-09-09T14:19:09.599Z,41.20
2018-09-09T14:21:38.326Z,41.20
2018-09-09T14:24:07.343Z,42.00
2018-09-09T14:26:36.427Z,40.60
2018-09-09T14:29:05.234Z,41.60
2018-09-09T14:31:33.935Z,40.50
2018-09-09T14:34:02.641Z,38.90
2018-09-09T14:36:31.640Z,38.30
2018-09-09T14:39:00.825Z,37.70
2018-09-09T14:41:29.892Z,39.00
2018-09-09T14:43:58.740Z,38.90
2018-09-09T14:46:27.403Z,39.00
2018-09-09T14:48:56.242Z,40.10
2018-09-09T14:51:24.907Z,40.20
2018-09-09T14:53:53.837Z,42.50
2018-09-09T14:56:22.547Z,43.60
2018-09-09T14:58:51.898Z,43.20
2018-09-09T15:01:20.881Z,42.60
2018-09-09T15:03:49.689Z,41.70
2018-09-09T15:06:18.940Z,41.90
2018-09-09T15:08:47.891Z,41.60
2018-09-09T15:11:17.024Z,41.20
2018-09-09T15:13:45.847Z,40.80
2018-09-09T15:16:14.981Z,42.10
2018-09-09T15:18:43.896Z,42.80
2018-09-09T15:21:12.556Z,44.40
2018-09-09T15:23:41.939Z,45.10
2018-09-09T15:26:10.878Z,45.70
2018-09-09T15:28:39.515Z,45.90
2018-09-09T15:31:08.744Z,46.90
2018-09-09T15:33:37.547Z,47.40
2018-09-09T15:36:06.458Z,47.60
2018-09-09T15:38:35.091Z,49.00
2018-09-09T15:41:04.078Z,50.40
2018-09-09T15:43:32.836Z,51.50
2018-09-09T15:46:01.710Z,51.20
2018-09-09T15:48:30.594Z,53.50
2018-09-09T15:50:59.399Z,55.20
2018-09-09T15:53:27.998Z,55.90
2018-09-09T15:55:57.014Z,57.20
2018-09-09T15:58:25.830Z,57.70
2018-09-09T16:00:54.700Z,56.50
2018-09-09T16:03:23.408Z,56.70
2018-09-09T16:05:52.288Z,58.30
2018-09-09T16:08:21.002Z,59.90
2018-09-09T16:10:50.107Z,59.60
2018-09-09T16:13:18.698Z,62.00
2018-09-09T16:15:47.300Z,65.50
2018-09-09T16:18:16.323Z,67.30
2018-09-09T16:20:45.242Z,67.20
2018-09-09T16:23:14.144Z,68.00
2018-09-09T16:25:43.151Z,67.60
2018-09-09T16:28:12.138Z,68.80
2018-09-09T16:30:41.333Z,67.60
2018-09-09T16:33:10.095Z,67.50
2018-09-09T16:35:39.275Z,69.60
2018-09-09T16:38:07.983Z,71.20
2018-09-09T16:40:37.022Z,72.40
2018-09-09T16:43:06.500Z,72.90
2018-09-09T16:45:35.328Z,72.90
2018-09-09T16:48:04.463Z,72.70
2018-09-09T16:50:33.596Z,73.90
2018-09-09T16:53:02.610Z,74.70
2018-09-09T16:55:31.668Z,73.70
2018-09-09T16:58:00.675Z,74.00
2018-09-09T17:00:29.390Z,74.10
2018-09-09T17:02:58.529Z,74.70
2018-09-09T17:05:27.325Z,74.30
2018-09-09T17:07:56.202Z,78.00
2018-09-09T17:10:25.213Z,76.80
2018-09-09T17:12:54.632Z,78.70
2018-09-09T17:15:23.254Z,77.50
2018-09-09T17:17:52.315Z,78.30
2018-09-09T17:20:21.416Z,79.10
2018-09-09T17:22:50.552Z,79.40
2018-09-09T17:25:19.560Z,81.10
2018-09-09T17:27:49.467Z,80.10
2018-09-09T17:30:18.515Z,79.60
2018-09-09T17:32:47.793Z,78.90
2018-09-09T17:35:16.644Z,90.00
2018-09-09T17:37:45.946Z,93.30
2018-09-09T17:40:15.114Z,96.90
2018-09-09T17:42:43.926Z,98.50
2018-09-09T17:45:12.997Z,97.50
2018-09-09T17:47:42.311Z,98.90
2018-09-09T17:50:11.438Z,97.80
2018-09-09T17:52:40.382Z,99.90
2018-09-09T17:55:09.317Z,99.90
2018-09-09T17:57:38.643Z,99.90
2018-09-09T18:00:10.787Z,99.90
2018-09-09T18:02:40.020Z,99.90
2018-09-09T18:05:09.340Z,99.90
2018-09-09T18:07:38.476Z,99.90
2018-09-09T18:10:08.031Z,99.90
2018-09-09T18:12:37.332Z,99.90
2018-09-09T18:15:06.642Z,99.90
2018-09-09T18:17:36.194Z,99.90
2018-09-09T18:20:05.020Z,99.90
2018-09-09T18:22:33.912Z,99.90
2018-09-09T18:25:03.222Z,99.90
2018-09-09T18:27:32.334Z,99.90
2018-09-09T18:30:01.373Z,99.90
2018-09-09T18:32:30.374Z,99.90
2018-09-09T18:34:59.511Z,99.90
2018-09-09T18:37:28.764Z,99.90
2018-09-09T18:39:57.745Z,99.90
2018-09-09T18:42:26.747Z,99.90
2018-09-09T18:44:56.340Z,99.90
2018-09-09T18:47:25.566Z,99.90
2018-09-09T18:49:54.693Z,99.90
2018-09-09T18:52:23.632Z,99.90
2018-09-09T18:54:53.071Z,99.90
2018-09-09T18:57:22.299Z,99.90
2018-09-09T18:59:51.576Z,99.90
2018-09-09T19:02:20.718Z,99.90
2018-09-09T19:04:49.659Z,99.90
2018-09-09T19:07:19.304Z,99.90
2018-09-09T19:09:48.671Z,99.90
2018-09-09T19:12:17.803Z,99.90
2018-09-09T19:14:47.166Z,99.90
2018-09-09T19:17:16.671Z,99.90
2018-09-09T19:19:45.896Z,99.90
2018-09-09T19:22:15.042Z,99.90
2018-09-09T19:24:44.350Z,99.90
2018-09-09T19:27:13.421Z,99.90
2018-09-09T19:29:42.858Z,99.90
2018-09-09T19:32:11.941Z,99.90
2018-09-09T19:34:41.076Z,99.90
2018-09-09T19:37:10.130Z,99.90
2018-09-09T19:39:39.413Z,99.90
2018-09-09T19:42:08.316Z,99.90
2018-09-09T19:44:37.458Z,99.90
2018-09-09T19:47:06.245Z,99.90
2018-09-09T19:49:35.287Z,99.90
2018-09-09T19:52:04.266Z,99.90
2018-09-09T19:54:33.228Z,99.90
2018-09-09T19:57:01.958Z,99.90
2018-09-09T19:59:30.902Z,99.90
2018-09-09T20:01:59.968Z,99.90
2018-09-09T20:04:29.002Z,99.90
2018-09-09T20:06:58.150Z,99.90
2018-09-09T20:09:26.968Z,99.90
2018-09-09T20:11:55.917Z,99.90
2018-09-09T20:14:24.962Z,99.90
2018-09-09T20:16:53.781Z,99.90
2018-09-09T20:19:22.800Z,99.90
2018-09-09T20:21:51.511Z,99.90
2018-09-09T20:24:20.214Z,99.90
2018-09-09T20:26:49.311Z,99.90
2018-09-09T20:29:17.994Z,99.90
2018-09-09T20:31:46.962Z,99.90
2018-09-09T20:34:15.743Z,99.90
2018-09-09T20:36:44.339Z,99.90
2018-09-09T20:39:13.490Z,99.90
2018-09-09T20:41:42.318Z,99.90
2018-09-09T20:44:11.208Z,99.90
2018-09-09T20:46:40.227Z,99.90
2018-09-09T20:49:08.957Z,99.90
2018-09-09T20:51:37.671Z,99.90
2018-09-09T20:54:06.490Z,99.90
2018-09-09T20:56:35.487Z,99.90
2018-09-09T20:59:04.290Z,99.90
2018-09-09T21:01:33.068Z,99.90
2018-09-09T21:04:01.785Z,99.90
2018-09-09T21:06:30.610Z,99.90
2018-09-09T21:08:59.867Z,99.90
2018-09-09T21:11:28.445Z,99.90
2018-09-09T21:13:57.073Z,99.90
2018-09-09T21:16:25.903Z,99.90
2018-09-09T21:18:54.837Z,99.90
2018-09-09T21:21:23.589Z,99.90
2018-09-09T21:23:52.661Z,99.90
2018-09-09T21:26:21.451Z,99.90
2018-09-09T21:28:50.788Z,99.90
2018-09-09T21:31:19.503Z,99.90
2018-09-09T21:33:48.197Z,99.90
2018-09-09T21:36:16.923Z,99.90
2018-09-09T21:38:46.001Z,99.90
2018-09-09T21:41:15.015Z,99.90
2018-09-09T21:43:43.901Z,99.90
2018-09-09T21:46:12.477Z,99.90
2018-09-09T21:48:41.370Z,99.90
2018-09-09T21:51:10.286Z,99.90
2018-09-09T21:53:39.389Z,99.90
2018-09-09T21:56:08.062Z,99.90
2018-09-09T21:58:36.902Z,99.90
2018-09-09T22:01:11.624Z,99.90
2018-09-09T22:03:40.352Z,99.90
2018-09-09T22:06:09.159Z,99.90
2018-09-09T22:08:38.036Z,99.90
2018-09-09T22:11:06.915Z,99.90
2018-09-09T22:13:35.765Z,99.90
2018-09-09T22:16:04.356Z,99.90
2018-09-09T22:18:32.969Z,99.90
2018-09-09T22:21:01.737Z,99.90
2018-09-09T22:23:30.472Z,99.90
2018-09-09T22:25:59.058Z,99.90
2018-09-09T22:28:27.753Z,99.90
2018-09-09T22:30:56.409Z,99.90
2018-09-09T22:33:25.200Z,99.90
2018-09-09T22:35:53.781Z,99.90
2018-09-09T22:38:22.645Z,99.90
2018-09-09T22:40:51.268Z,99.90
2018-09-09T22:43:21.068Z,99.90
2018-09-09T22:45:52.217Z,99.90
2018-09-09T22:48:20.989Z,99.90
2018-09-09T22:50:49.581Z,99.90
2018-09-09T22:53:18.109Z,99.90
2018-09-09T22:55:46.925Z,99.90
2018-09-09T22:58:15.565Z,99.90
2018-09-09T23:00:44.412Z,99.90
2018-09-09T23:03:13.207Z,99.90
2018-09-09T23:05:42.054Z,99.90
2018-09-09T23:08:10.811Z,99.90
2018-09-09T23:10:39.379Z,99.90
2018-09-09T23:13:08.230Z,99.90
2018-09-09T23:15:36.907Z,99.90
2018-09-09T23:18:05.929Z,99.90
2018-09-09T23:20:34.733Z,99.90
2018-09-09T23:23:03.429Z,99.90
2018-09-09T23:25:31.986Z,99.90
2018-09-09T23:28:01.079Z,99.90
2018-09-09T23:30:29.682Z,99.90
2018-09-09T23:32:58.632Z,99.90
2018-09-09T23:35:27.201Z,99.90
2018-09-09T23:37:55.937Z,99.90
2018-09-09T23:40:24.859Z,99.90
2018-09-09T23:42:53.582Z,99.90
2018-09-09T23:45:22.563Z,99.90
2018-09-09T23:47:51.204Z,99.90
2018-09-09T23:50:20.098Z,99.90
2018-09-09T23:52:48.797Z,99.90
2018-09-09T23:55:17.699Z,99.90
2018-09-09T23:57:46.469Z,99.90
